Time;durP1;ratioP1;P1;durP2;ratioP2;P2;SDS_P1;SDS_P2;PMS_P1;PMS_P2;Temp;Humidity;BMP_temperature;BMP_pressure;BME280_temperature;BME280_humidity;BME280_pressure;Samples;Min_cycle;Max_cycle;Signal;HPM_P1;HPM_P2
2022/07/29 00:01:48;;;;;;;6.30;5.57;;;;;;;20.47;66.47;99214.41;4957023;28;20225;-78
2022/07/29 00:04:14;;;;;;;6.07;5.43;;;;;;;20.46;67.04;99207.38;4961080;28;20912;-78
2022/07/29 00:06:40;;;;;;;5.90;5.40;;;;;;;20.40;67.18;99208.06;4960649;28;20226;-78
2022/07/29 00:09:06;;;;;;;6.40;5.80;;;;;;;20.37;67.13;99207.59;4957100;28;20602;-79
2022/07/29 00:11:31;;;;;;;5.77;5.27;;;;;;;20.31;67.45;99198.44;4960136;28;20221;-78
2022/07/29 00:13:56;;;;;;;4.83;4.53;;;;;;;20.23;67.58;99207.28;4954943;28;20500;-78
2022/07/29 00:16:22;;;;;;;5.27;4.87;;;;;;;20.23;67.51;99209.13;4958393;28;20281;-78
2022/07/29 00:18:48;;;;;;;5.90;5.40;;;;;;;20.22;67.72;99204.78;4956864;28;20218;-78
2022/07/29 00:21:13;;;;;;;6.30;5.80;;;;;;;20.20;67.90;99198.75;4955969;28;20461;-78
2022/07/29 00:23:39;;;;;;;5.20;4.80;;;;;;;20.13;67.99;99206.63;4955820;28;20222;-78
2022/07/29 00:26:04;;;;;;;5.47;4.97;;;;;;;20.14;67.94;99207.44;4955288;28;20231;-78
2022/07/29 00:28:29;;;;;;;6.63;5.83;;;;;;;20.14;67.98;99205.59;4959016;28;20722;-78
2022/07/29 00:30:55;;;;;;;6.20;5.70;;;;;;;20.10;67.93;99197.13;4956393;29;20211;-78
2022/07/29 00:33:21;;;;;;;6.63;5.93;;;;;;;20.06;68.65;99200.28;4956703;28;20581;-78
2022/07/29 00:35:47;;;;;;;5.90;5.30;;;;;;;19.96;68.71;99195.16;4955743;28;20249;-79
2022/07/29 00:38:18;;;;;;;7.03;6.03;;;;;;;19.91;69.07;99194.81;4957735;28;20907;-78
2022/07/29 00:40:44;;;;;;;5.70;5.30;;;;;;;19.90;68.82;99201.13;4960807;28;20238;-78
2022/07/29 00:43:11;;;;;;;6.03;5.50;;;;;;;19.88;68.85;99193.31;4957598;28;21005;-78
2022/07/29 00:45:36;;;;;;;5.60;5.10;;;;;;;19.92;68.88;99187.66;4961792;28;20460;-78
2022/07/29 00:48:04;;;;;;;5.60;5.20;;;;;;;19.94;68.54;99191.81;4956527;28;20452;-78
2022/07/29 00:50:30;;;;;;;5.50;5.10;;;;;;;19.92;68.72;99184.97;4956497;29;20230;-77
2022/07/29 00:52:56;;;;;;;6.60;6.00;;;;;;;19.86;69.12;99189.16;4956562;28;20537;-79
2022/07/29 00:55:22;;;;;;;6.03;5.50;;;;;;;19.79;69.25;99186.31;4942878;29;20897;-78
2022/07/29 00:57:48;;;;;;;6.10;5.60;;;;;;;19.79;69.37;99188.97;4931591;29;20226;-78
2022/07/29 01:00:18;;;;;;;5.20;4.70;;;;;;;19.78;69.46;99199.81;4943117;29;20344;-78
2022/07/29 01:02:45;;;;;;;9.20;6.88;;;;;;;19.77;69.43;99198.16;4943809;29;20479;-78
2022/07/29 01:05:12;;;;;;;6.67;6.07;;;;;;;19.77;69.42;99206.16;4935905;29;20607;-79
2022/07/29 01:07:39;;;;;;;5.90;5.30;;;;;;;19.71;69.54;99204.13;4934636;29;20560;-78
2022/07/29 01:10:07;;;;;;;5.33;4.87;;;;;;;19.62;69.74;99201.44;4936410;29;20474;-78
2022/07/29 01:12:35;;;;;;;5.90;5.40;;;;;;;19.56;70.06;99203.94;4936842;29;20868;-78
2022/07/29 01:15:03;;;;;;;5.63;4.93;;;;;;;19.50;70.12;99197.44;4940484;29;20491;-78
2022/07/29 01:17:59;;;;;;;6.97;5.43;;;;;;;19.48;70.13;99190.63;4938784;29;20832;-78
2022/07/29 01:20:39;;;;;;;5.33;4.83;;;;;;;19.51;70.32;99187.63;4941656;29;20489;-78
2022/07/29 01:23:15;;;;;;;5.57;4.97;;;;;;;19.51;70.23;99185.78;4941867;29;20482;-78
2022/07/29 01:26:02;;;;;;;5.70;5.20;;;;;;;19.53;70.17;99182.97;4935593;29;20478;-79
2022/07/29 01:28:39;;;;;;;6.03;5.43;;;;;;;19.52;70.09;99186.59;4936673;29;20451;-78
2022/07/29 01:31:07;;;;;;;6.38;5.88;;;;;;;19.50;70.77;99188.63;4940612;29;20994;-78
2022/07/29 01:33:50;;;;;;;6.30;5.73;;;;;;;19.40;70.89;99178.94;4936861;29;20240;-80
2022/07/29 01:36:40;;;;;;;5.80;5.20;;;;;;;19.35;70.92;99177.78;4942203;29;20468;-78
2022/07/29 01:39:31;;;;;;;5.53;5.03;;;;;;;19.35;70.85;99186.59;4940173;29;20536;-79
2022/07/29 01:42:05;;;;;;;6.23;5.43;;;;;;;19.36;70.29;99179.44;4942851;29;20542;-78
2022/07/29 01:44:35;;;;;;;5.97;5.47;;;;;;;19.31;70.71;99185.28;4942222;29;20889;-78
2022/07/29 01:47:08;;;;;;;5.47;4.57;;;;;;;19.26;70.53;99181.44;4943906;29;20471;-78
2022/07/29 01:49:38;;;;;;;5.87;5.27;;;;;;;19.15;71.24;99180.75;4942001;29;20587;-78
2022/07/29 01:52:09;;;;;;;5.57;5.07;;;;;;;19.06;71.27;99192.34;4936384;29;20939;-78
2022/07/29 01:54:42;;;;;;;6.00;5.50;;;;;;;19.02;71.55;99197.16;4941316;29;20520;-79
2022/07/29 01:57:10;;;;;;;5.73;5.33;;;;;;;19.01;71.49;99192.03;4942417;29;20511;-78
2022/07/29 01:59:38;;;;;;;5.60;5.20;;;;;;;19.05;71.16;99197.84;4938612;29;20475;-78
2022/07/29 02:02:06;;;;;;;6.75;6.15;;;;;;;19.10;71.61;99195.53;4939205;29;20628;-77
2022/07/29 02:04:33;;;;;;;5.73;5.23;;;;;;;19.09;71.45;99197.38;4938321;29;20231;-77
2022/07/29 02:07:05;;;;;;;6.60;5.83;;;;;;;19.10;71.53;99192.88;4942715;29;20479;-78
2022/07/29 02:09:34;;;;;;;5.70;5.23;;;;;;;19.12;71.22;99191.72;4939489;29;20618;-78
2022/07/29 02:12:02;;;;;;;8.17;5.70;;;;;;;19.12;71.01;99194.38;4940293;29;20465;-78
2022/07/29 02:14:33;;;;;;;7.07;5.67;;;;;;;19.10;71.20;99201.69;4936755;29;21025;-78
2022/07/29 02:17:01;;;;;;;7.67;5.87;;;;;;;19.10;71.02;99193.72;4937413;29;20464;-78
2022/07/29 02:19:27;;;;;;;6.23;5.67;;;;;;;19.09;70.91;99192.06;4934901;29;20462;-78
2022/07/29 02:21:55;;;;;;;7.27;5.70;;;;;;;19.08;70.91;99198.34;4937853;29;20475;-78
2022/07/29 02:24:22;;;;;;;6.03;5.53;;;;;;;19.10;70.87;99199.03;4938846;29;20495;-78
2022/07/29 02:26:50;;;;;;;9.87;6.60;;;;;;;19.11;70.73;99198.03;4936877;29;20486;-78
2022/07/29 02:29:18;;;;;;;5.63;5.23;;;;;;;19.07;70.88;99193.22;4934889;29;20492;-78
2022/07/29 02:31:47;;;;;;;5.90;5.27;;;;;;;19.03;71.14;99195.34;4939042;29;20952;-78
2022/07/29 02:34:14;;;;;;;5.90;5.40;;;;;;;19.02;70.83;99194.50;4939537;29;20557;-77
2022/07/29 02:36:41;;;;;;;7.10;6.40;;;;;;;18.99;71.09;99202.81;4942540;29;20465;-78
2022/07/29 02:39:08;;;;;;;7.67;6.07;;;;;;;18.97;71.11;99199.47;4943094;29;20471;-78
2022/07/29 02:41:41;;;;;;;6.10;5.50;;;;;;;18.94;71.16;99199.81;4944608;29;20461;-78
2022/07/29 02:44:15;;;;;;;6.13;5.63;;;;;;;18.90;71.12;99203.81;4937499;29;20492;-79
2022/07/29 02:47:09;;;;;;;6.03;5.43;;;;;;;18.89;71.25;99201.28;4928985;29;20550;-78
2022/07/29 02:49:51;;;;;;;6.43;5.87;;;;;;;18.83;71.40;99202.78;4938561;29;20918;-77
2022/07/29 02:52:22;;;;;;;10.57;5.83;;;;;;;18.80;71.45;99203.09;4938909;29;20467;-78
2022/07/29 02:54:56;;;;;;;6.53;5.93;;;;;;;18.77;71.35;99198.91;4952412;28;20539;-79
2022/07/29 02:58:02;;;;;;;6.83;6.13;;;;;;;18.76;71.71;99213.19;4957363;28;20502;-80
2022/07/29 03:00:29;;;;;;;7.23;6.53;;;;;;;18.71;71.59;99210.19;4892635;29;20472;-80
2022/07/29 03:02:58;;;;;;;6.32;5.82;;;;;;;18.69;72.08;99206.84;4951743;28;20892;-80
2022/07/29 03:05:24;;;;;;;5.30;4.83;;;;;;;18.64;72.32;99209.13;4963950;28;20238;-80
2022/07/29 03:07:54;;;;;;;7.00;6.10;;;;;;;18.59;72.25;99206.13;4958693;28;20658;-80
2022/07/29 03:10:20;;;;;;;5.43;4.93;;;;;;;18.58;72.34;99199.97;4958214;28;20489;-80
2022/07/29 03:12:47;;;;;;;6.27;5.77;;;;;;;18.62;72.42;99197.00;4959146;28;20470;-80
2022/07/29 03:15:13;;;;;;;6.10;5.50;;;;;;;18.54;72.43;99192.47;4958656;28;20481;-80
2022/07/29 03:17:39;;;;;;;7.40;5.80;;;;;;;18.42;72.57;99193.75;4961549;28;20473;-80
2022/07/29 03:20:07;;;;;;;5.60;5.10;;;;;;;18.38;73.05;99187.88;4959339;29;20497;-80
2022/07/29 03:22:33;;;;;;;5.30;4.80;;;;;;;18.35;72.72;99197.00;4959124;28;20679;-80
2022/07/29 03:25:08;;;;;;;6.70;6.20;;;;;;;18.34;72.83;99195.34;4954496;28;20544;-80
2022/07/29 03:27:34;;;;;;;5.70;5.20;;;;;;;18.32;72.96;99194.66;4960980;28;20460;-80
2022/07/29 03:29:59;;;;;;;5.63;5.13;;;;;;;18.35;72.95;99189.03;4956000;28;20537;-79
2022/07/29 03:32:24;;;;;;;8.17;5.70;;;;;;;18.39;72.65;99191.38;4957110;28;20478;-79
2022/07/29 03:34:50;;;;;;;6.50;5.90;;;;;;;18.38;73.05;99195.88;4963911;28;20245;-80
2022/07/29 03:37:15;;;;;;;6.03;5.43;;;;;;;18.38;72.82;99211.00;4961544;28;20220;-80
2022/07/29 03:39:42;;;;;;;6.00;5.40;;;;;;;18.37;72.58;99212.81;4960751;28;20212;-80
2022/07/29 03:42:11;;;;;;;6.00;5.40;;;;;;;18.35;73.05;99204.16;4961056;28;20210;-80
2022/07/29 03:44:38;;;;;;;6.17;5.60;;;;;;;18.38;72.91;99195.88;4960021;28;20476;-80
2022/07/29 03:47:06;;;;;;;6.00;5.10;;;;;;;18.38;72.60;99209.16;4958584;28;20464;-80
2022/07/29 03:49:34;;;;;;;6.83;6.23;;;;;;;18.40;72.80;99211.69;4956999;28;20494;-80
2022/07/29 03:51:59;;;;;;;6.10;5.50;;;;;;;18.42;72.55;99210.53;4960859;28;20483;-80
2022/07/29 03:54:26;;;;;;;6.83;6.23;;;;;;;18.42;72.65;99215.00;4943228;29;20766;-80
2022/07/29 03:56:52;;;;;;;5.53;5.00;;;;;;;18.38;72.75;99208.34;4957632;29;20288;-80
2022/07/29 03:59:19;;;;;;;4.93;4.50;;;;;;;18.41;72.55;99213.31;4956354;28;20471;-80
2022/07/29 04:01:46;;;;;;;5.50;5.10;;;;;;;18.40;72.45;99204.53;4956652;28;20480;-79
2022/07/29 04:04:11;;;;;;;6.68;6.07;;;;;;;18.45;72.82;99206.72;4946015;29;21080;-79
2022/07/29 04:06:45;;;;;;;6.60;5.67;;;;;;;18.41;72.86;99202.69;4955878;28;20746;-80
2022/07/29 04:09:11;;;;;;;6.00;5.50;;;;;;;18.39;72.85;99213.50;4955410;28;20217;-79
2022/07/29 04:11:41;;;;;;;6.13;5.67;;;;;;;18.42;72.61;99202.53;4956469;28;20845;-80
2022/07/29 04:14:07;;;;;;;8.20;6.00;;;;;;;18.43;72.30;99204.19;4954705;28;20481;-79
2022/07/29 04:16:32;;;;;;;5.47;4.97;;;;;;;18.46;72.26;99214.53;4957833;29;20500;-78
2022/07/29 04:18:59;;;;;;;7.53;5.30;;;;;;;18.50;72.33;99207.91;4955852;28;20248;-80
2022/07/29 04:21:24;;;;;;;6.33;5.73;;;;;;;18.54;72.10;99217.22;4955664;29;20207;-80
2022/07/29 04:23:50;;;;;;;7.53;5.37;;;;;;;18.59;71.72;99222.09;4954225;28;20584;-79
2022/07/29 04:26:19;;;;;;;6.53;5.93;;;;;;;18.66;71.72;99214.28;4958182;29;20642;-80
2022/07/29 04:28:46;;;;;;;6.60;5.53;;;;;;;18.66;71.38;99219.59;4955989;29;20214;-80
2022/07/29 04:31:12;;;;;;;6.80;5.17;;;;;;;18.66;71.54;99223.13;4955977;28;20567;-79
2022/07/29 04:33:38;;;;;;;6.30;5.80;;;;;;;18.68;71.53;99223.78;4958371;28;20566;-78
2022/07/29 04:36:04;;;;;;;6.60;6.10;;;;;;;18.69;71.36;99220.13;4960763;29;20458;-78
2022/07/29 04:38:30;;;;;;;7.47;6.57;;;;;;;18.70;71.26;99229.78;4959289;29;20537;-78
2022/07/29 04:40:55;;;;;;;5.93;5.27;;;;;;;18.72;71.23;99226.97;4958799;29;20453;-80
2022/07/29 04:43:20;;;;;;;5.63;5.23;;;;;;;18.81;71.04;99230.53;4952871;28;20783;-79
2022/07/29 04:45:46;;;;;;;5.63;5.03;;;;;;;18.87;70.61;99229.88;4950760;29;20207;-79
2022/07/29 04:48:11;;;;;;;6.63;5.93;;;;;;;18.97;70.07;99238.56;4952361;29;20244;-80
2022/07/29 04:50:40;;;;;;;6.00;5.40;;;;;;;19.06;69.89;99240.25;4952545;29;20237;-78
2022/07/29 04:53:05;;;;;;;7.40;6.70;;;;;;;19.15;69.70;99249.13;4950683;28;20300;-80
2022/07/29 04:55:31;;;;;;;5.40;5.00;;;;;;;19.17;69.38;99239.13;4951115;29;21156;-79
2022/07/29 04:57:56;;;;;;;5.83;5.30;;;;;;;19.21;69.35;99243.16;4951540;28;20207;-80
2022/07/29 05:00:22;;;;;;;5.70;5.20;;;;;;;19.22;69.16;99240.31;4952476;28;20202;-80
2022/07/29 05:02:48;;;;;;;6.70;6.10;;;;;;;19.19;69.41;99237.97;4951182;29;20526;-79
2022/07/29 05:05:14;;;;;;;9.40;5.70;;;;;;;19.15;69.68;99241.97;4951087;28;20261;-80
2022/07/29 05:07:39;;;;;;;7.03;5.50;;;;;;;19.11;69.74;99243.28;4953843;28;20475;-79
2022/07/29 05:10:05;;;;;;;7.03;6.40;;;;;;;19.09;69.92;99247.97;4953492;28;20222;-80
2022/07/29 05:12:30;;;;;;;6.57;5.97;;;;;;;19.10;69.81;99246.94;4954109;29;20509;-79
2022/07/29 05:14:56;;;;;;;5.67;5.07;;;;;;;19.14;69.58;99250.13;4952612;28;20244;-80
2022/07/29 05:17:21;;;;;;;6.53;5.83;;;;;;;19.19;69.64;99251.28;4953660;28;20280;-79
2022/07/29 05:19:46;;;;;;;5.43;4.93;;;;;;;19.28;69.36;99253.97;4954196;29;20426;-80
2022/07/29 05:22:12;;;;;;;7.73;5.50;;;;;;;19.32;69.52;99263.31;4953073;28;20743;-80
2022/07/29 05:24:37;;;;;;;6.47;5.97;;;;;;;19.29;69.75;99264.47;4952575;28;20231;-80
2022/07/29 05:27:03;;;;;;;6.67;6.00;;;;;;;19.27;69.65;99266.47;4950481;28;20297;-80
2022/07/29 05:29:29;;;;;;;6.30;5.70;;;;;;;19.25;69.83;99273.78;4952196;28;20363;-80
2022/07/29 05:31:54;;;;;;;6.23;5.63;;;;;;;19.28;70.01;99268.16;4953787;29;20544;-80
2022/07/29 05:34:19;;;;;;;6.87;5.93;;;;;;;19.23;70.33;99284.59;4953290;29;20263;-79
2022/07/29 05:36:45;;;;;;;6.43;5.87;;;;;;;19.21;70.28;99278.59;4950610;29;20241;-80
2022/07/29 05:39:12;;;;;;;6.40;5.80;;;;;;;19.26;70.07;99283.44;4949270;28;20217;-79
2022/07/29 05:41:38;;;;;;;7.10;5.40;;;;;;;19.36;69.63;99284.16;4947808;29;20457;-80
2022/07/29 05:44:21;;;;;;;6.00;5.40;;;;;;;19.51;69.40;99279.03;5043945;28;20807;-79
2022/07/29 05:46:46;;;;;;;6.17;4.63;;;;;;;19.65;68.94;99289.03;5037421;28;20466;-78
2022/07/29 05:49:12;;;;;;;5.50;5.00;;;;;;;19.79;68.20;99289.41;5043754;28;20266;-79
2022/07/29 05:51:37;;;;;;;9.43;5.33;;;;;;;19.98;67.26;99281.13;5041250;28;20219;-77
2022/07/29 05:54:02;;;;;;;5.90;5.40;;;;;;;20.24;66.53;99288.94;5040107;28;20570;-78
2022/07/29 05:56:28;;;;;;;6.63;5.27;;;;;;;20.21;66.32;99288.44;5044711;22;20297;-76
2022/07/29 05:58:53;;;;;;;6.00;5.60;;;;;;;20.35;66.00;99293.09;5027558;28;20677;-76
2022/07/29 06:01:19;;;;;;;7.37;5.17;;;;;;;20.32;65.71;99299.59;5034129;28;20790;-77
2022/07/29 06:03:44;;;;;;;6.50;5.90;;;;;;;20.31;66.13;99300.63;5034995;28;20551;-76
2022/07/29 06:06:10;;;;;;;6.57;5.90;;;;;;;20.39;65.78;99304.25;5046838;28;20286;-76
2022/07/29 06:08:36;;;;;;;9.07;4.60;;;;;;;20.62;64.85;99293.78;5055888;28;20384;-76
2022/07/29 06:11:03;;;;;;;5.47;4.63;;;;;;;21.42;62.17;99294.50;5056202;28;21260;-76
2022/07/29 06:13:29;;;;;;;5.07;4.67;;;;;;;22.39;58.89;99293.19;5058173;28;21527;-76
2022/07/29 06:15:55;;;;;;;7.37;5.23;;;;;;;22.94;57.02;99299.97;5055502;28;20832;-76
2022/07/29 06:18:23;;;;;;;5.73;5.03;;;;;;;22.83;57.27;99300.44;5056220;28;20473;-75
2022/07/29 06:20:50;;;;;;;5.83;5.33;;;;;;;23.10;56.68;99294.44;5055976;28;20203;-76
2022/07/29 06:23:15;;;;;;;5.53;5.03;;;;;;;24.47;52.82;99297.16;5057418;28;21020;-75
2022/07/29 06:25:40;;;;;;;6.07;5.00;;;;;;;25.23;50.54;99293.72;5057759;28;20484;-76
2022/07/29 06:28:06;;;;;;;6.20;5.70;;;;;;;26.49;47.51;99285.88;5053835;28;20206;-73
2022/07/29 06:30:31;;;;;;;10.20;5.23;;;;;;;27.60;44.20;99281.44;5057027;28;20210;-73
2022/07/29 06:32:57;;;;;;;6.20;5.60;;;;;;;28.39;42.16;99280.06;5051966;28;20826;-73
2022/07/29 06:35:22;;;;;;;6.40;4.67;;;;;;;28.80;40.58;99275.94;5054653;28;20237;-73
2022/07/29 06:37:48;;;;;;;5.33;4.67;;;;;;;29.30;39.55;99281.22;5055021;28;20231;-74
2022/07/29 06:42:57;;;;;;;7.77;5.50;;;;;;;28.24;41.92;99282.25;5055162;28;20219;-75
2022/07/29 06:45:24;;;;;;;7.40;6.00;;;;;;;27.64;43.60;99281.81;5055955;28;20503;-75
2022/07/29 06:47:49;;;;;;;5.33;4.60;;;;;;;27.70;43.34;99281.78;5054420;28;20226;-74
2022/07/29 06:50:15;;;;;;;5.47;4.93;;;;;;;28.23;42.25;99286.84;5049343;28;20465;-74
2022/07/29 06:52:40;;;;;;;5.03;4.63;;;;;;;28.19;42.16;99296.44;5054164;28;20199;-75
2022/07/29 06:55:07;;;;;;;4.63;4.23;;;;;;;28.16;41.97;99296.84;5035399;28;20308;-74
2022/07/29 06:57:33;;;;;;;5.53;5.10;;;;;;;28.52;40.65;99289.94;5036943;28;20715;-75
2022/07/29 06:59:58;;;;;;;4.73;4.43;;;;;;;29.42;39.03;99288.56;5043167;28;20477;-75
2022/07/29 07:02:24;;;;;;;4.70;4.30;;;;;;;30.03;37.45;99282.09;5043358;28;20668;-75
2022/07/29 07:04:49;;;;;;;4.80;4.40;;;;;;;30.47;36.16;99285.34;5040947;28;20206;-75
2022/07/29 07:07:15;;;;;;;4.57;4.23;;;;;;;30.03;37.13;99292.94;5038814;28;20219;-75
2022/07/29 07:09:40;;;;;;;5.13;4.33;;;;;;;30.14;36.81;99289.41;5043964;28;20203;-75
2022/07/29 07:12:06;;;;;;;5.40;4.93;;;;;;;29.85;36.64;99296.53;5038373;28;20203;-75
2022/07/29 07:14:32;;;;;;;3.90;3.60;;;;;;;29.43;36.81;99306.44;5042327;28;20206;-75
2022/07/29 07:16:59;;;;;;;3.70;3.40;;;;;;;29.59;36.43;99307.69;5041968;28;21027;-75
2022/07/29 07:19:25;;;;;;;5.70;3.77;;;;;;;30.59;34.89;99313.25;5037667;28;20207;-74
2022/07/29 07:21:52;;;;;;;4.50;4.10;;;;;;;31.35;32.75;99307.88;5038521;28;20481;-75
2022/07/29 07:24:18;;;;;;;3.60;3.17;;;;;;;31.77;31.82;99309.53;5039830;28;20229;-75
2022/07/29 07:26:43;;;;;;;5.00;4.00;;;;;;;31.53;32.02;99315.88;5041250;28;20485;-75
2022/07/29 07:29:09;;;;;;;4.50;3.23;;;;;;;31.11;33.04;99318.00;5038192;28;20218;-75
2022/07/29 07:31:35;;;;;;;5.87;4.20;;;;;;;31.85;31.96;99312.69;5040789;28;20218;-75
2022/07/29 07:34:01;;;;;;;4.43;3.80;;;;;;;32.25;30.77;99305.53;5043629;28;20278;-75
2022/07/29 07:36:26;;;;;;;4.03;3.63;;;;;;;31.68;31.95;99317.25;5043448;28;21108;-75
2022/07/29 07:38:51;;;;;;;6.47;4.47;;;;;;;30.67;33.53;99320.22;5037436;28;20203;-74
2022/07/29 07:41:17;;;;;;;5.53;4.80;;;;;;;29.47;35.31;99326.59;5038740;28;20246;-75
2022/07/29 07:43:42;;;;;;;4.67;4.23;;;;;;;28.71;37.18;99341.34;5041602;28;20258;-75
2022/07/29 07:46:08;;;;;;;4.80;4.10;;;;;;;28.30;38.21;99339.97;5037043;28;20242;-75
2022/07/29 07:48:34;;;;;;;4.37;3.90;;;;;;;28.02;38.91;99349.31;5036992;28;20203;-74
2022/07/29 07:51:00;;;;;;;7.33;6.10;;;;;;;27.92;39.36;99348.94;5029958;28;22051;-75
2022/07/29 07:53:25;;;;;;;5.50;5.00;;;;;;;27.97;38.93;99346.44;5028522;28;20468;-75
2022/07/29 07:55:51;;;;;;;7.00;4.17;;;;;;;27.93;39.37;99346.03;5032900;28;20246;-75
2022/07/29 07:58:16;;;;;;;4.33;3.93;;;;;;;27.46;40.35;99345.41;5035617;28;20305;-75
2022/07/29 08:00:42;;;;;;;5.80;4.80;;;;;;;26.87;41.70;99351.78;5041449;28;20230;-74
2022/07/29 08:03:08;;;;;;;5.27;4.53;;;;;;;26.52;42.49;99341.25;5041211;28;20530;-75
2022/07/29 08:05:33;;;;;;;5.67;4.57;;;;;;;26.30;43.18;99337.88;5036385;28;20227;-75
2022/07/29 08:07:59;;;;;;;6.13;5.17;;;;;;;26.18;43.60;99337.66;5053733;28;20469;-75
2022/07/29 08:13:11;;;;;;;4.00;3.70;;;;;;;26.02;43.98;99335.34;5040003;28;20199;-76
2022/07/29 08:15:39;;;;;;;10.53;4.27;;;;;;;26.06;44.09;99344.69;5039142;28;20513;-75
2022/07/29 08:18:04;;;;;;;5.03;4.17;;;;;;;26.04;44.16;99338.69;5039132;28;20465;-75
2022/07/29 08:20:31;;;;;;;4.70;4.20;;;;;;;26.08;44.01;99342.59;5033757;28;20816;-75
2022/07/29 08:22:57;;;;;;;7.67;4.00;;;;;;;26.37;43.54;99333.31;5034691;28;20215;-74
2022/07/29 08:25:22;;;;;;;4.33;4.03;;;;;;;26.58;43.25;99328.81;5039936;28;20485;-75
2022/07/29 08:27:48;;;;;;;4.67;3.90;;;;;;;26.66;42.89;99333.97;5040101;28;20687;-74
2022/07/29 08:30:14;;;;;;;6.30;4.20;;;;;;;26.63;43.52;99339.78;5039150;28;20207;-74
2022/07/29 08:32:39;;;;;;;5.53;4.70;;;;;;;26.66;43.45;99342.06;5036471;28;20489;-75
2022/07/29 08:35:05;;;;;;;6.50;4.30;;;;;;;26.78;43.47;99340.38;5040641;28;20215;-74
2022/07/29 08:37:30;;;;;;;7.20;4.80;;;;;;;26.94;42.97;99339.09;5038846;28;20292;-74
2022/07/29 08:39:56;;;;;;;5.27;4.70;;;;;;;27.05;42.67;99334.94;5035725;28;21173;-74
2022/07/29 08:42:21;;;;;;;4.53;4.13;;;;;;;27.22;42.13;99338.03;5042307;28;20233;-75
2022/07/29 08:44:47;;;;;;;4.20;3.80;;;;;;;27.32;41.60;99338.41;5041354;28;20300;-74
2022/07/29 08:47:16;;;;;;;5.20;4.43;;;;;;;27.44;41.12;99342.13;5044621;28;20230;-74
2022/07/29 08:49:41;;;;;;;4.50;4.10;;;;;;;27.49;41.07;99336.91;5048450;28;20471;-75
2022/07/29 08:52:10;;;;;;;5.00;3.60;;;;;;;27.46;40.98;99333.78;5039436;28;20461;-74
2022/07/29 08:54:42;;;;;;;11.87;4.87;;;;;;;27.24;41.40;99333.25;5037503;28;20214;-75
2022/07/29 08:57:10;;;;;;;5.33;4.93;;;;;;;27.05;41.91;99334.94;5037083;28;20485;-75
2022/07/29 08:59:40;;;;;;;5.27;4.57;;;;;;;26.96;42.09;99339.72;5036837;28;20553;-75
2022/07/29 09:02:12;;;;;;;6.03;4.07;;;;;;;26.89;42.53;99333.50;5038216;28;20492;-74
2022/07/29 09:04:38;;;;;;;8.83;4.40;;;;;;;26.80;42.81;99338.31;5038621;28;20493;-74
2022/07/29 09:07:05;;;;;;;4.80;4.40;;;;;;;26.80;43.03;99342.88;5040258;28;21062;-74
2022/07/29 09:09:33;;;;;;;6.53;4.43;;;;;;;26.95;42.89;99340.78;5036087;28;20464;-74
2022/07/29 09:11:59;;;;;;;4.60;4.20;;;;;;;27.00;42.98;99338.25;5040173;28;20902;-75
2022/07/29 09:14:25;;;;;;;7.83;4.33;;;;;;;27.04;43.06;99336.00;5037772;28;20473;-76
2022/07/29 09:16:56;;;;;;;6.53;4.43;;;;;;;26.92;43.11;99339.34;5038433;28;20477;-76
2022/07/29 09:19:25;;;;;;;4.17;3.70;;;;;;;26.79;43.47;99341.19;5039657;28;20702;-75
2022/07/29 09:21:57;;;;;;;7.10;3.67;;;;;;;26.65;43.71;99343.94;5037109;28;20480;-74
2022/07/29 09:24:22;;;;;;;4.50;4.10;;;;;;;26.45;43.85;99333.13;5036109;28;20446;-74
2022/07/29 09:26:48;;;;;;;3.80;3.50;;;;;;;26.37;43.94;99324.41;5038078;28;20489;-74
2022/07/29 09:29:22;;;;;;;6.60;3.93;;;;;;;26.30;44.02;99324.41;5039699;28;20199;-74
2022/07/29 09:31:50;;;;;;;3.90;3.60;;;;;;;26.33;44.41;99332.09;5039071;28;20573;-74
2022/07/29 09:34:24;;;;;;;7.80;3.80;;;;;;;26.42;44.09;99332.72;5033396;28;20718;-75
2022/07/29 09:36:51;;;;;;;5.30;4.27;;;;;;;26.38;44.25;99337.69;5036135;28;20823;-74
2022/07/29 09:39:31;;;;;;;5.63;3.60;;;;;;;26.27;44.47;99336.44;5035727;28;20837;-75
2022/07/29 09:41:59;;;;;;;7.43;4.00;;;;;;;26.29;44.44;99347.00;5035715;28;20504;-74
2022/07/29 09:44:25;;;;;;;7.30;3.60;;;;;;;26.32;44.33;99340.38;5037981;28;20472;-74
2022/07/29 09:46:58;;;;;;;4.13;3.73;;;;;;;26.40;44.06;99348.25;5037912;28;20565;-76
2022/07/29 09:49:24;;;;;;;5.50;3.97;;;;;;;26.51;43.82;99341.41;5038668;28;20499;-76
2022/07/29 09:52:10;;;;;;;4.60;3.70;;;;;;;26.58;43.28;99344.97;5037202;28;20461;-75
2022/07/29 09:54:36;;;;;;;3.90;3.50;;;;;;;26.64;43.26;99346.81;5031952;28;20505;-75
2022/07/29 09:57:08;;;;;;;4.60;3.70;;;;;;;26.66;43.20;99348.28;5034075;28;20614;-75
2022/07/29 09:59:34;;;;;;;4.83;4.00;;;;;;;26.80;42.45;99343.69;5039365;28;20207;-75
2022/07/29 10:02:00;;;;;;;4.27;3.90;;;;;;;26.84;41.88;99349.47;5034243;28;21250;-75
2022/07/29 10:04:39;;;;;;;5.47;3.90;;;;;;;26.99;41.32;99342.00;5037940;28;20749;-75
2022/07/29 10:07:05;;;;;;;4.37;4.07;;;;;;;27.23;40.91;99339.69;5039951;28;20254;-75
2022/07/29 10:09:31;;;;;;;5.27;3.30;;;;;;;27.35;40.13;99332.59;5037107;28;20493;-75
2022/07/29 10:12:15;;;;;;;4.63;3.27;;;;;;;27.49;39.88;99333.34;5039118;28;20198;-75
2022/07/29 10:14:42;;;;;;;5.00;3.63;;;;;;;27.48;39.48;99331.72;5037851;28;20458;-76
2022/07/29 10:17:09;;;;;;;5.80;4.73;;;;;;;27.49;40.04;99331.50;5037453;28;20477;-75
2022/07/29 10:19:38;;;;;;;5.30;4.03;;;;;;;27.68;39.48;99329.75;5038913;28;20493;-75
2022/07/29 10:22:10;;;;;;;5.67;3.77;;;;;;;27.96;39.13;99328.59;5036004;28;20808;-75
2022/07/29 10:24:38;;;;;;;3.90;3.50;;;;;;;28.19;38.33;99317.19;5036427;28;21000;-75
2022/07/29 10:27:05;;;;;;;3.50;3.20;;;;;;;28.39;37.71;99320.56;5035925;28;20481;-76
2022/07/29 10:29:31;;;;;;;4.17;3.30;;;;;;;28.51;37.45;99315.31;5039867;28;20526;-74
2022/07/29 10:32:28;;;;;;;5.83;3.80;;;;;;;28.59;36.80;99316.91;5045556;28;20578;-76
2022/07/29 10:35:12;;;;;;;4.10;3.80;;;;;;;28.47;36.29;99318.69;5042078;28;20456;-76
2022/07/29 10:37:55;;;;;;;6.60;3.90;;;;;;;28.48;36.63;99320.34;5042772;28;20463;-76
2022/07/29 10:43:32;;;;;;;5.00;3.67;;;;;;;28.65;36.45;99322.25;5041656;28;20576;-76
2022/07/29 10:45:59;;;;;;;4.47;3.70;;;;;;;28.49;36.33;99327.38;5042345;28;20851;-75
2022/07/29 10:48:25;;;;;;;4.23;3.53;;;;;;;28.54;36.22;99324.84;5039558;28;20471;-75
2022/07/29 10:50:59;;;;;;;3.23;2.80;;;;;;;28.62;35.48;99332.66;5010257;28;20486;-76
2022/07/29 10:53:46;;;;;;;3.90;3.60;;;;;;;28.61;34.70;99328.31;5016380;28;20552;-76
2022/07/29 10:56:26;;;;;;;3.70;3.40;;;;;;;28.59;35.10;99333.13;4999584;28;20502;-75
2022/07/29 10:59:20;;;;;;;5.40;4.10;;;;;;;28.68;34.80;99329.09;5007983;28;20474;-75
2022/07/29 11:01:46;;;;;;;5.70;3.07;;;;;;;28.70;34.75;99326.97;5011722;28;20455;-77
2022/07/29 11:04:12;;;;;;;3.93;3.07;;;;;;;28.78;34.59;99326.69;5012751;28;20481;-76
2022/07/29 11:07:04;;;;;;;3.17;2.87;;;;;;;28.89;34.67;99320.56;4963414;28;20491;-77
2022/07/29 11:09:30;;;;;;;5.10;3.50;;;;;;;28.96;34.15;99322.38;5008375;28;20472;-77
2022/07/29 11:11:59;;;;;;;3.40;3.10;;;;;;;28.93;34.12;99328.22;5003981;28;20520;-78
2022/07/29 11:15:00;;;;;;;5.67;3.70;;;;;;;28.93;33.75;99328.22;5013566;28;20970;-77
2022/07/29 11:17:25;;;;;;;4.10;3.70;;;;;;;28.87;33.75;99325.38;5010583;28;20452;-77
2022/07/29 11:19:51;;;;;;;5.53;4.90;;;;;;;28.81;33.69;99326.28;5006533;28;20769;-76
2022/07/29 11:22:34;;;;;;;3.27;3.07;;;;;;;28.79;33.47;99332.94;5008493;28;20476;-77
2022/07/29 11:25:25;;;;;;;4.90;3.57;;;;;;;28.74;33.22;99333.59;5009817;28;20214;-77
2022/07/29 11:27:53;;;;;;;4.20;3.20;;;;;;;28.79;33.65;99336.47;4979960;28;20550;-77
2022/07/29 11:30:19;;;;;;;3.43;3.23;;;;;;;28.87;33.76;99336.19;4966310;28;20488;-77
2022/07/29 11:32:46;;;;;;;4.47;3.80;;;;;;;28.91;33.82;99331.16;4965930;28;20896;-77
2022/07/29 11:35:14;;;;;;;4.00;3.60;;;;;;;28.90;34.06;99332.19;4972054;28;20681;-77
2022/07/29 11:37:40;;;;;;;4.10;3.63;;;;;;;29.00;34.54;99328.97;4971702;28;20493;-77
2022/07/29 11:40:06;;;;;;;6.57;3.80;;;;;;;29.03;34.68;99328.50;4970351;28;20888;-77
2022/07/29 11:42:32;;;;;;;6.47;3.57;;;;;;;29.03;34.98;99332.06;4969678;28;20229;-77
2022/07/29 11:45:16;;;;;;;6.03;3.93;;;;;;;28.97;35.39;99326.72;4970904;28;20508;-77
2022/07/29 11:47:47;;;;;;;5.60;3.47;;;;;;;28.95;35.62;99320.69;4982086;28;20251;-77
2022/07/29 11:50:26;;;;;;;6.73;3.47;;;;;;;28.88;35.65;99332.41;4971357;28;20522;-76